Time;durP1;ratioP1;P1;durP2;ratioP2;P2;SDS_P1;SDS_P2;PMS_P1;PMS_P2;Temp;Humidity;BMP_temperature;BMP_pressure;BME280_temperature;BME280_humidity;BME280_pressure;Samples;Min_cycle;Max_cycle;Signal;HPM_P1;HPM_P2
2022/11/01 00:00:16;;;;;;;18.95;9.32;;;13.80;99.90;;;;;;5008287;28;20073;-56
2022/11/01 00:02:42;;;;;;;20.98;9.23;;;13.60;99.90;;;;;;5005352;28;20597;-56
2022/11/01 00:05:08;;;;;;;19.38;8.93;;;13.60;99.90;;;;;;5007541;28;20049;-56
2022/11/01 00:07:34;;;;;;;17.35;9.30;;;13.80;99.90;;;;;;5005048;28;20570;-56
2022/11/01 00:09:59;;;;;;;18.88;9.52;;;13.60;99.90;;;;;;5007093;28;20041;-55
2022/11/01 00:12:25;;;;;;;17.27;8.75;;;13.60;99.90;;;;;;5009081;28;20088;-56
2022/11/01 00:14:51;;;;;;;22.75;8.98;;;13.90;99.90;;;;;;5006690;28;20044;-56
2022/11/01 00:17:17;;;;;;;16.20;7.63;;;13.70;99.90;;;;;;5007371;28;20048;-57
2022/11/01 00:19:42;;;;;;;20.92;9.25;;;13.80;99.90;;;;;;5006709;28;20053;-56
2022/11/01 00:22:08;;;;;;;15.07;8.20;;;13.70;99.90;;;;;;5009888;28;20091;-56
2022/11/01 00:24:34;;;;;;;17.75;8.65;;;13.70;99.90;;;;;;5007890;28;20241;-56
2022/11/01 00:27:00;;;;;;;16.08;8.05;;;13.80;99.90;;;;;;5007758;28;20069;-56
2022/11/01 00:29:26;;;;;;;14.98;8.15;;;13.80;99.90;;;;;;5008368;28;20052;-57
2022/11/01 00:31:52;;;;;;;16.38;8.27;;;13.70;99.90;;;;;;5006130;28;20036;-56
2022/11/01 00:34:18;;;;;;;17.27;7.72;;;13.80;99.90;;;;;;5007832;28;20068;-56
2022/11/01 00:36:43;;;;;;;21.38;8.75;;;13.80;98.60;;;;;;5007185;28;20372;-56
2022/11/01 00:39:13;;;;;;;16.30;7.70;;;13.90;98.90;;;;;;5006496;28;20037;-57
2022/11/01 00:41:38;;;;;;;19.02;7.60;;;14.20;96.60;;;;;;5006612;28;20060;-57
2022/11/01 00:44:04;;;;;;;11.45;6.75;;;14.10;96.00;;;;;;5010657;28;20776;-57
2022/11/01 00:46:31;;;;;;;18.33;7.97;;;13.70;95.30;;;;;;5007281;28;20052;-57
2022/11/01 00:48:56;;;;;;;16.35;7.63;;;14.00;96.30;;;;;;5008437;28;20053;-57
2022/11/01 00:51:22;;;;;;;19.77;7.40;;;13.90;95.70;;;;;;5002732;28;20499;-56
2022/11/01 00:53:48;;;;;;;17.95;6.97;;;14.10;94.30;;;;;;5004161;28;20037;-56
2022/11/01 00:56:14;;;;;;;16.85;7.40;;;14.10;95.80;;;;;;5004334;28;20045;-56
2022/11/01 00:58:39;;;;;;;15.57;7.25;;;14.00;95.50;;;;;;5006395;28;20148;-57
2022/11/01 01:01:05;;;;;;;15.88;7.22;;;14.10;95.50;;;;;;5004876;28;20949;-56
2022/11/01 01:03:31;;;;;;;16.73;6.88;;;14.20;94.50;;;;;;5009721;28;20038;-56
2022/11/01 01:05:57;;;;;;;17.33;7.25;;;14.10;94.40;;;;;;5007356;28;20112;-56
2022/11/01 01:08:24;;;;;;;22.27;8.38;;;14.20;93.60;;;;;;5006435;28;20045;-55
2022/11/01 01:10:49;;;;;;;14.18;7.63;;;14.10;94.20;;;;;;5006196;28;20094;-56
2022/11/01 01:13:16;;;;;;;14.63;7.35;;;14.10;94.00;;;;;;5002583;28;20109;-57
2022/11/01 01:15:42;;;;;;;15.55;7.30;;;15.20;95.30;;;;;;5006337;28;20082;-57
2022/11/01 01:18:08;;;;;;;15.55;7.55;;;13.80;95.00;;;;;;5002913;28;21072;-56
2022/11/01 01:20:34;;;;;;;13.55;7.60;;;14.10;96.20;;;;;;5005600;28;20091;-56
2022/11/01 01:23:00;;;;;;;15.40;6.90;;;14.10;95.10;;;;;;5005851;28;20121;-56
2022/11/01 01:25:25;;;;;;;20.73;7.57;;;14.00;95.70;;;;;;5005033;28;20096;-57
2022/11/01 01:27:51;;;;;;;16.50;7.50;;;13.90;96.00;;;;;;5004574;28;20670;-56
2022/11/01 01:30:17;;;;;;;17.85;7.53;;;15.50;97.10;;;;;;5003484;28;20634;-57
2022/11/01 01:32:43;;;;;;;14.10;7.47;;;14.00;97.90;;;;;;5005396;28;20034;-56
2022/11/01 01:35:09;;;;;;;17.30;6.85;;;13.90;95.90;;;;;;5006459;28;20044;-55
2022/11/01 01:37:35;;;;;;;15.32;7.82;;;16.00;99.10;;;;;;5005903;28;20052;-56
2022/11/01 01:40:01;;;;;;;14.85;7.53;;;14.00;99.00;;;;;;5005493;28;20507;-57
2022/11/01 01:42:35;;;;;;;18.00;7.65;;;14.00;99.10;;;;;;5004265;28;20109;-57
2022/11/01 01:45:04;;;;;;;18.95;6.88;;;13.90;99.80;;;;;;5007938;28;20266;-56
2022/11/01 01:47:39;;;;;;;17.65;7.22;;;13.90;99.90;;;;;;5004431;28;20633;-57
2022/11/01 01:50:09;;;;;;;15.20;6.60;;;13.90;98.70;;;;;;5005995;28;20049;-56
2022/11/01 01:53:02;;;;;;;14.90;7.50;;;14.00;98.80;;;;;;5004181;28;20068;-56
2022/11/01 01:55:31;;;;;;;;;;;13.90;99.20;;;;;;5003187;28;20042;-56
2022/11/01 01:57:58;;;;;;;17.92;7.13;;;14.00;99.60;;;;;;5003687;28;20702;-57
2022/11/01 02:00:24;;;;;;;16.25;6.60;;;14.00;99.90;;;;;;5005910;28;20049;-56
2022/11/01 02:02:50;;;;;;;17.75;7.28;;;14.10;99.90;;;;;;5005309;28;20058;-56
2022/11/01 02:05:42;;;;;;;14.32;7.05;;;14.60;99.90;;;;;;5006945;28;20041;-57
2022/11/01 02:08:09;;;;;;;15.13;7.13;;;13.90;99.90;;;;;;5009077;28;20041;-57
2022/11/01 02:10:35;;;;;;;21.67;7.43;;;13.90;99.90;;;;;;5006998;28;20056;-56
2022/11/01 02:13:01;;;;;;;16.05;7.15;;;14.10;99.90;;;;;;5006501;28;20037;-56
2022/11/01 02:15:50;;;;;;;16.30;6.40;;;13.90;99.90;;;;;;5007442;28;20037;-57
2022/11/01 02:18:50;;;;;;;13.75;6.28;;;14.00;99.90;;;;;;5004049;28;20589;-56
2022/11/01 02:21:40;;;;;;;13.35;6.90;;;13.90;99.90;;;;;;5001289;28;21342;-57
2022/11/01 02:24:18;;;;;;;16.40;6.60;;;14.10;99.90;;;;;;5007411;28;20045;-56
2022/11/01 02:27:00;;;;;;;16.45;7.07;;;14.20;99.90;;;;;;5005315;28;20045;-56
2022/11/01 02:29:49;;;;;;;14.35;6.88;;;14.10;99.90;;;;;;5006014;28;20054;-57
2022/11/01 02:32:32;;;;;;;12.52;6.97;;;13.90;99.90;;;;;;5000167;28;20392;-60
2022/11/01 02:35:06;;;;;;;16.05;7.57;;;15.90;99.90;;;;;;5003285;28;20556;-56
2022/11/01 02:37:50;;;;;;;19.77;6.65;;;14.00;99.90;;;;;;5004949;28;20403;-56
2022/11/01 02:40:26;;;;;;;13.00;7.00;;;14.10;99.90;;;;;;5001362;28;20531;-56
2022/11/01 02:42:58;;;;;;;15.45;6.20;;;14.10;99.90;;;;;;5004819;28;20205;-56
2022/11/01 02:45:35;;;;;;;;;;;14.20;99.90;;;;;;5004565;28;20120;-56
2022/11/01 02:48:03;;;;;;;14.23;6.35;;;14.10;99.90;;;;;;5002858;28;19926;-57
2022/11/01 02:50:55;;;;;;;14.93;6.32;;;14.30;99.90;;;;;;5003885;28;20053;-57
2022/11/01 02:53:21;;;;;;;;;;;14.20;99.50;;;;;;5002456;28;20295;-57
2022/11/01 02:55:46;;;;;;;12.50;6.22;;;14.20;99.90;;;;;;5002277;28;19950;-56
2022/11/01 02:58:18;;;;;;;12.30;5.88;;;14.30;99.90;;;;;;5004948;28;21145;-57
2022/11/01 03:00:44;;;;;;;;;;;14.30;99.90;;;;;;5005365;28;20046;-57
2022/11/01 03:03:31;;;;;;;10.05;5.80;;;14.10;99.90;;;;;;5001000;28;19925;-56
2022/11/01 03:06:03;;;;;;;12.98;6.60;;;14.20;99.90;;;;;;5003101;28;20244;-56
2022/11/01 03:08:34;;;;;;;16.70;6.43;;;14.10;99.90;;;;;;5000449;28;20538;-55
2022/11/01 03:11:11;;;;;;;14.38;6.85;;;12.30;99.90;;;;;;5006730;28;20049;-57
2022/11/01 03:13:56;;;;;;;13.07;5.95;;;14.20;99.90;;;;;;5005860;28;20038;-56
2022/11/01 03:16:28;;;;;;;20.00;6.30;;;14.00;99.90;;;;;;5003970;28;20091;-56
2022/11/01 03:19:12;;;;;;;11.35;6.20;;;14.00;99.90;;;;;;5000706;28;20045;-56
2022/11/01 03:21:49;;;;;;;12.85;6.40;;;14.10;99.90;;;;;;5003787;28;20625;-57
2022/11/01 03:24:25;;;;;;;10.77;5.65;;;13.90;99.90;;;;;;5003735;28;20464;-56
2022/11/01 03:27:06;;;;;;;13.30;6.25;;;14.10;99.90;;;;;;5005442;28;20060;-56
2022/11/01 03:29:32;;;;;;;15.73;6.00;;;14.00;99.90;;;;;;5005199;28;20037;-56
2022/11/01 03:32:01;;;;;;;14.25;6.32;;;14.60;99.90;;;;;;5006402;28;20049;-56
2022/11/01 03:34:29;;;;;;;18.40;6.20;;;14.10;99.90;;;;;;5005743;28;20574;-56
2022/11/01 03:37:01;;;;;;;13.23;5.78;;;14.30;99.90;;;;;;5003901;28;20037;-57
2022/11/01 03:39:38;;;;;;;13.65;6.15;;;14.20;99.90;;;;;;5001585;28;20068;-57
2022/11/01 03:42:18;;;;;;;12.05;6.93;;;14.20;99.90;;;;;;5004552;28;20034;-56
2022/11/01 03:44:48;;;;;;;14.65;6.65;;;14.30;99.90;;;;;;5002389;28;20037;-56
2022/11/01 03:47:14;;;;;;;15.50;6.18;;;14.20;99.90;;;;;;5001923;28;20084;-56
2022/11/01 03:49:40;;;;;;;16.13;6.90;;;13.90;99.90;;;;;;5003307;28;20125;-56
2022/11/01 03:52:06;;;;;;;13.57;5.88;;;14.20;99.90;;;;;;5004919;28;20038;-56
2022/11/01 03:54:32;;;;;;;15.50;6.20;;;14.00;99.90;;;;;;5004396;28;20136;-57
2022/11/01 03:56:58;;;;;;;12.45;5.85;;;14.10;99.90;;;;;;5004428;28;20655;-56
2022/11/01 03:59:24;;;;;;;14.98;6.40;;;14.40;99.90;;;;;;5002073;28;20060;-56
2022/11/01 04:01:49;;;;;;;10.80;5.97;;;14.00;99.90;;;;;;5003280;28;20483;-56
2022/11/01 04:04:15;;;;;;;12.40;6.28;;;14.80;99.90;;;;;;5003371;28;20041;-56
2022/11/01 04:06:41;;;;;;;14.10;6.45;;;14.10;99.90;;;;;;5003039;28;20399;-56
2022/11/01 04:09:06;;;;;;;12.43;5.28;;;14.20;99.90;;;;;;5003389;28;20063;-57
2022/11/01 04:11:32;;;;;;;11.85;5.93;;;14.20;99.90;;;;;;4999484;28;20049;-56
2022/11/01 04:22:11;;;;;;;12.88;5.20;;;14.40;99.90;;;;;;5003901;28;21044;-56
2022/11/01 04:24:37;;;;;;;11.98;5.50;;;16.00;99.90;;;;;;5004190;28;20346;-55
2022/11/01 04:27:03;;;;;;;13.48;5.97;;;14.50;99.90;;;;;;5004084;28;20080;-56
2022/11/01 04:29:29;;;;;;;11.15;5.45;;;14.70;99.90;;;;;;5004230;28;20410;-54
2022/11/01 04:31:54;;;;;;;13.50;5.35;;;14.70;99.90;;;;;;5001017;28;20037;-56
2022/11/01 04:34:41;;;;;;;12.75;5.43;;;14.80;99.90;;;;;;5006358;28;20395;-56
2022/11/01 04:37:06;;;;;;;14.05;5.93;;;14.90;99.90;;;;;;5004066;28;20042;-56
2022/11/01 04:39:32;;;;;;;14.63;5.32;;;14.90;99.90;;;;;;5004598;28;20045;-56
2022/11/01 04:41:57;;;;;;;15.00;5.72;;;15.10;99.90;;;;;;5008533;28;20136;-57
2022/11/01 04:44:23;;;;;;;12.00;5.30;;;14.90;99.90;;;;;;5007025;28;20498;-56
2022/11/01 04:46:48;;;;;;;10.35;4.93;;;15.00;99.90;;;;;;5008899;28;20348;-56
2022/11/01 04:49:14;;;;;;;13.50;5.00;;;15.00;99.90;;;;;;5006809;28;20042;-57
2022/11/01 04:51:41;;;;;;;12.20;5.05;;;15.10;99.90;;;;;;5009177;28;20065;-56
2022/11/01 04:54:07;;;;;;;10.63;4.55;;;15.10;99.90;;;;;;5007002;28;20396;-56
2022/11/01 04:56:33;;;;;;;13.20;5.15;;;15.20;99.90;;;;;;5007227;28;20050;-56
2022/11/01 04:58:58;;;;;;;12.25;5.38;;;15.30;99.90;;;;;;4976532;28;20060;-57
2022/11/01 05:01:24;;;;;;;14.18;5.18;;;15.30;99.90;;;;;;5005606;28;20042;-57
2022/11/01 05:03:50;;;;;;;12.50;4.95;;;14.90;99.90;;;;;;5009285;28;20056;-57
2022/11/01 05:06:16;;;;;;;9.52;4.88;;;15.10;99.90;;;;;;5010747;28;20053;-57
2022/11/01 05:08:42;;;;;;;10.63;4.68;;;15.30;99.90;;;;;;5006691;28;20090;-56
2022/11/01 05:11:07;;;;;;;10.27;4.55;;;15.20;99.90;;;;;;5007343;28;20264;-56
2022/11/01 05:13:34;;;;;;;10.85;4.40;;;15.30;99.90;;;;;;5005625;28;20042;-56
2022/11/01 05:16:03;;;;;;;10.18;4.18;;;15.20;99.90;;;;;;5007058;28;20130;-56
2022/11/01 05:18:29;;;;;;;9.18;3.97;;;15.20;99.90;;;;;;5005199;28;20046;-56
2022/11/01 05:20:55;;;;;;;11.38;4.35;;;15.20;99.90;;;;;;5005441;28;20033;-56
2022/11/01 05:23:21;;;;;;;10.25;4.60;;;15.10;99.90;;;;;;5007527;28;21134;-56
2022/11/01 05:25:47;;;;;;;12.02;4.60;;;15.20;99.90;;;;;;5004364;28;20124;-56
2022/11/01 05:28:13;;;;;;;8.45;4.13;;;15.20;99.90;;;;;;5006426;28;20041;-56
2022/11/01 05:30:40;;;;;;;12.32;4.45;;;15.10;99.90;;;;;;5007843;28;20301;-56
2022/11/01 05:33:07;;;;;;;8.50;4.22;;;15.00;99.90;;;;;;5005914;28;20049;-57
2022/11/01 05:35:34;;;;;;;9.65;4.78;;;15.10;99.90;;;;;;5005306;28;20046;-56
2022/11/01 05:38:02;;;;;;;9.98;4.57;;;15.10;99.90;;;;;;5004683;28;20045;-56
2022/11/01 05:40:27;;;;;;;11.55;4.50;;;14.90;99.90;;;;;;5005132;28;20692;-57
2022/11/01 05:42:53;;;;;;;12.50;4.45;;;15.10;99.90;;;;;;5004877;28;20555;-56
2022/11/01 05:45:19;;;;;;;14.00;4.30;;;15.20;99.90;;;;;;5000607;28;20038;-56
2022/11/01 05:47:45;;;;;;;9.07;3.85;;;15.20;99.90;;;;;;5002266;28;20056;-56
2022/11/01 05:50:12;;;;;;;9.95;4.10;;;15.10;99.90;;;;;;5005513;28;20045;-56
2022/11/01 05:52:39;;;;;;;11.88;4.88;;;15.00;99.90;;;;;;4999129;28;20118;-56
2022/11/01 05:55:06;;;;;;;11.20;3.10;;;14.70;99.90;;;;;;5003034;28;20102;-56
2022/11/01 05:57:32;;;;;;;8.40;2.60;;;15.10;99.60;;;;;;5003021;28;20053;-56
2022/11/01 05:59:57;;;;;;;7.90;2.00;;;14.90;95.80;;;;;;5002386;28;20045;-56
2022/11/01 06:02:23;;;;;;;6.65;1.60;;;14.90;81.60;;;;;;5005225;28;20170;-56
2022/11/01 06:04:49;;;;;;;9.55;1.95;;;14.70;62.60;;;;;;5003834;28;20136;-54
2022/11/01 06:07:15;;;;;;;5.28;1.30;;;14.60;69.10;;;;;;5003665;28;20729;-56
2022/11/01 06:09:40;;;;;;;4.55;1.50;;;14.50;64.00;;;;;;5005607;28;20144;-56
2022/11/01 06:12:06;;;;;;;6.53;1.30;;;14.60;60.40;;;;;;5005102;28;20192;-56
2022/11/01 06:14:32;;;;;;;6.22;1.70;;;14.50;53.10;;;;;;5007482;28;20041;-56
2022/11/01 06:16:58;;;;;;;5.93;1.27;;;14.30;49.90;;;;;;5007536;28;20053;-56
2022/11/01 06:19:23;;;;;;;7.85;1.52;;;12.70;44.10;;;;;;5006484;28;20034;-56
2022/11/01 06:21:49;;;;;;;6.00;1.10;;;14.20;47.50;;;;;;5007542;28;20180;-56
2022/11/01 06:24:15;;;;;;;5.38;1.30;;;14.20;37.70;;;;;;5007218;28;20044;-56
2022/11/01 06:26:41;;;;;;;6.28;1.70;;;14.00;46.40;;;;;;4996957;28;20050;-56
2022/11/01 06:29:06;;;;;;;5.35;1.00;;;14.00;40.60;;;;;;4997206;28;20232;-56
2022/11/01 06:31:32;;;;;;;4.40;1.00;;;14.10;47.70;;;;;;5005742;28;20762;-56
2022/11/01 06:33:58;;;;;;;7.55;1.13;;;14.00;52.10;;;;;;4988356;28;20311;-56
2022/11/01 06:36:24;;;;;;;5.45;1.00;;;13.60;59.50;;;;;;5003848;28;20052;-56
2022/11/01 06:38:49;;;;;;;5.43;1.20;;;13.70;63.80;;;;;;5001826;28;20045;-57
2022/11/01 06:41:15;;;;;;;5.90;1.23;;;13.70;64.40;;;;;;5004327;28;20484;-55
2022/11/01 06:43:41;;;;;;;8.07;1.13;;;13.80;67.90;;;;;;5005970;28;20048;-56
2022/11/01 06:46:07;;;;;;;5.68;1.10;;;13.70;65.20;;;;;;5004390;28;20037;-56
2022/11/01 06:48:33;;;;;;;5.25;1.20;;;13.40;64.00;;;;;;5006868;28;20131;-56
2022/11/01 06:51:02;;;;;;;8.05;1.38;;;13.30;65.20;;;;;;5001873;28;20054;-56
2022/11/01 06:53:28;;;;;;;5.00;1.20;;;13.60;44.10;;;;;;5005907;28;20088;-56
2022/11/01 06:55:54;;;;;;;8.18;1.30;;;13.30;32.00;;;;;;5004299;28;20151;-57
2022/11/01 06:58:19;;;;;;;9.20;1.40;;;13.50;21.20;;;;;;5004374;28;20069;-56
2022/11/01 07:00:45;;;;;;;10.57;1.50;;;13.40;19.40;;;;;;5006514;28;20052;-56
2022/11/01 07:03:13;;;;;;;12.27;1.88;;;13.20;7.50;;;;;;5005155;28;20037;-56
2022/11/01 07:05:39;;;;;;;11.05;1.92;;;13.30;1.00;;;;;;5006661;28;20053;-56
2022/11/01 07:08:07;;;;;;;12.30;1.73;;;13.30;1.00;;;;;;5003361;28;20314;-56
2022/11/01 07:10:34;;;;;;;10.98;1.85;;;13.30;1.00;;;;;;5004273;28;20046;-56
2022/11/01 07:13:02;;;;;;;9.77;1.50;;;13.20;1.00;;;;;;5007356;28;20403;-56
2022/11/01 07:15:28;;;;;;;8.32;1.45;;;13.30;1.00;;;;;;5002984;28;20037;-57
2022/11/01 07:17:59;;;;;;;13.68;1.90;;;13.20;1.00;;;;;;5004941;28;20055;-56
2022/11/01 07:20:26;;;;;;;9.05;2.00;;;13.40;1.00;;;;;;5005085;28;20140;-56
2022/11/01 07:23:02;;;;;;;14.07;1.90;;;13.20;1.00;;;;;;5001910;28;20094;-56
2022/11/01 07:25:28;;;;;;;14.05;2.80;;;13.40;1.00;;;;;;5004844;28;20049;-56
2022/11/01 07:27:54;;;;;;;10.85;2.03;;;13.30;1.00;;;;;;5004857;28;20029;-55
2022/11/01 07:30:20;;;;;;;7.32;1.80;;;13.50;1.00;;;;;;4998987;28;20571;-56
2022/11/01 07:32:46;;;;;;;13.25;2.15;;;13.30;1.00;;;;;;5005234;28;20052;-56
2022/11/01 07:35:12;;;;;;;12.85;1.95;;;13.50;1.00;;;;;;5004476;28;20538;-56
2022/11/01 07:37:38;;;;;;;13.57;1.98;;;13.50;1.00;;;;;;5004629;28;20128;-56
2022/11/01 07:40:04;;;;;;;12.23;2.25;;;13.60;1.00;;;;;;5003555;28;20050;-57
2022/11/01 07:42:30;;;;;;;12.50;2.10;;;13.80;1.00;;;;;;5002369;28;20057;-56
2022/11/01 07:44:56;;;;;;;13.00;1.85;;;13.80;1.00;;;;;;5005815;28;20117;-56
2022/11/01 07:47:21;;;;;;;13.38;2.30;;;13.90;1.00;;;;;;5003593;28;20575;-56
2022/11/01 07:49:49;;;;;;;13.05;2.08;;;13.80;1.00;;;;;;5005028;28;20066;-56
2022/11/01 07:52:15;;;;;;;21.52;2.17;;;15.70;1.00;;;;;;5003273;28;20439;-56
2022/11/01 07:54:41;;;;;;;9.63;1.92;;;14.00;1.00;;;;;;5001545;28;20045;-56
2022/11/01 07:57:08;;;;;;;13.13;2.70;;;14.10;1.00;;;;;;5004857;28;20041;-56
2022/11/01 07:59:34;;;;;;;12.07;2.13;;;14.20;1.00;;;;;;5001451;28;20053;-56
2022/11/01 08:01:59;;;;;;;12.25;1.92;;;14.20;1.00;;;;;;5004251;28;20094;-56
2022/11/01 08:04:25;;;;;;;10.32;2.42;;;14.10;1.00;;;;;;5002978;28;20430;-56
2022/11/01 08:06:51;;;;;;;12.30;1.88;;;14.00;1.00;;;;;;5004365;28;20045;-56
2022/11/01 08:09:16;;;;;;;11.60;1.95;;;14.10;1.00;;;;;;5004444;28;20442;-56
2022/11/01 08:11:42;;;;;;;15.93;2.10;;;14.00;1.00;;;;;;5005035;28;20034;-56
2022/11/01 08:14:08;;;;;;;11.43;2.03;;;14.00;1.00;;;;;;5007593;28;20082;-57
2022/11/01 08:16:34;;;;;;;16.48;3.05;;;14.10;1.00;;;;;;5008561;28;20049;-56
2022/11/01 08:19:00;;;;;;;15.35;2.10;;;14.10;1.00;;;;;;5008386;28;20053;-56
2022/11/01 08:21:25;;;;;;;14.88;2.60;;;14.10;1.00;;;;;;5008587;28;20125;-55
2022/11/01 08:23:51;;;;;;;20.45;3.00;;;14.00;1.00;;;;;;5009646;28;20591;-57
2022/11/01 08:26:17;;;;;;;13.90;2.17;;;14.10;1.00;;;;;;5009401;28;20052;-56
2022/11/01 08:28:42;;;;;;;15.75;2.42;;;14.10;1.00;;;;;;5009113;28;20116;-57
2022/11/01 08:31:09;;;;;;;21.48;3.90;;;13.90;1.00;;;;;;5010060;28;20037;-56
2022/11/01 08:33:35;;;;;;;14.82;2.45;;;14.10;1.00;;;;;;5006456;28;20503;-54
2022/11/01 08:36:01;;;;;;;12.82;2.50;;;14.00;1.00;;;;;;5008241;28;20041;-57
2022/11/01 08:38:26;;;;;;;8.45;2.20;;;14.00;1.00;;;;;;5005748;28;20041;-56
2022/11/01 08:40:53;;;;;;;16.67;2.85;;;14.00;1.00;;;;;;5007130;28;20296;-57
2022/11/01 08:43:19;;;;;;;19.33;2.70;;;13.80;1.00;;;;;;5022561;28;20054;-56
2022/11/01 08:45:45;;;;;;;14.00;2.88;;;13.80;1.00;;;;;;5003604;28;20967;-56
2022/11/01 08:48:10;;;;;;;13.43;2.42;;;13.90;1.00;;;;;;5004960;28;20038;-56
2022/11/01 08:50:37;;;;;;;13.38;2.05;;;13.70;1.00;;;;;;5007104;28;20548;-56
2022/11/01 08:53:08;;;;;;;19.27;3.53;;;13.80;1.00;;;;;;5006426;28;20480;-56
2022/11/01 08:55:35;;;;;;;21.45;3.20;;;14.10;1.00;;;;;;5007918;28;20038;-57
2022/11/01 08:58:02;;;;;;;19.75;3.80;;;13.80;1.00;;;;;;5003868;28;20130;-56
2022/11/01 09:00:28;;;;;;;19.10;3.65;;;13.80;1.00;;;;;;5004036;28;20188;-57
2022/11/01 09:02:54;;;;;;;20.15;3.33;;;13.80;1.00;;;;;;5006362;28;20154;-56
2022/11/01 09:05:21;;;;;;;19.48;3.38;;;14.10;1.00;;;;;;5002770;28;20054;-56
2022/11/01 09:07:47;;;;;;;20.52;3.35;;;14.80;99.90;;;;;;5006301;28;20052;-56
2022/11/01 09:10:15;;;;;;;17.42;3.33;;;15.60;99.90;;;;;;5004725;28;20065;-57
2022/11/01 09:12:41;;;;;;;18.75;3.88;;;15.50;99.90;;;;;;5004783;28;20093;-56
2022/11/01 09:15:08;;;;;;;17.55;2.55;;;15.50;99.90;;;;;;5007426;28;20102;-56
2022/11/01 09:17:34;;;;;;;17.23;3.10;;;15.60;99.90;;;;;;5007299;28;20052;-56
2022/11/01 09:20:00;;;;;;;18.00;3.13;;;16.70;99.90;;;;;;5006612;28;20049;-56
2022/11/01 09:22:26;;;;;;;18.35;3.45;;;15.50;99.90;;;;;;5008462;28;20045;-56
2022/11/01 09:24:54;;;;;;;18.58;3.17;;;15.10;99.90;;;;;;5005035;28;20034;-56
2022/11/01 09:27:19;;;;;;;21.67;3.35;;;15.40;99.90;;;;;;5004729;28;20049;-56
2022/11/01 09:29:45;;;;;;;15.63;3.35;;;15.00;99.90;;;;;;5005771;28;20174;-57
2022/11/01 09:32:11;;;;;;;19.92;3.45;;;14.80;99.90;;;;;;5006910;28;20045;-56
2022/11/01 09:34:36;;;;;;;16.92;2.88;;;14.80;99.90;;;;;;5006160;28;20376;-56
2022/11/01 09:37:03;;;;;;;19.10;3.70;;;14.50;99.90;;;;;;5006686;28;20033;-56
2022/11/01 09:39:29;;;;;;;12.98;3.33;;;14.80;99.90;;;;;;5003810;28;21159;-56
2022/11/01 09:42:00;;;;;;;17.10;3.13;;;14.70;99.90;;;;;;5007975;28;20044;-57
2022/11/01 09:44:30;;;;;;;15.88;2.50;;;14.70;1.00;;;;;;5005091;28;20520;-57
2022/11/01 09:47:21;;;;;;;17.42;2.78;;;14.80;1.00;;;;;;5007780;28;20048;-57
2022/11/01 09:49:51;;;;;;;17.95;3.10;;;14.90;1.00;;;;;;5004082;28;20612;-56
2022/11/01 09:52:22;;;;;;;19.15;2.65;;;15.00;1.00;;;;;;5008526;28;21718;-56
2022/11/01 09:54:49;;;;;;;17.20;2.85;;;14.90;99.90;;;;;;5007150;28;20049;-56
2022/11/01 09:57:29;;;;;;;16.50;2.95;;;14.90;1.00;;;;;;5007844;28;20420;-56
2022/11/01 10:00:12;;;;;;;20.08;3.10;;;14.80;1.00;;;;;;5006439;28;20506;-57
2022/11/01 10:03:17;;;;;;;17.98;3.20;;;14.80;1.00;;;;;;5003995;28;20120;-57
2022/11/01 10:06:29;;;;;;;18.48;2.85;;;14.80;1.00;;;;;;4991295;28;20061;-56
2022/11/01 10:09:23;;;;;;;15.95;2.70;;;15.10;1.00;;;;;;5006204;28;20050;-56
2022/11/01 10:12:10;;;;;;;15.45;3.15;;;15.30;1.00;;;;;;5003465;28;20613;-56
2022/11/01 10:14:45;;;;;;;19.38;2.97;;;15.30;1.00;;;;;;5000330;28;20042;-56
2022/11/01 10:17:16;;;;;;;18.92;3.33;;;15.20;1.00;;;;;;5006905;28;20091;-56
2022/11/01 10:19:46;;;;;;;19.65;3.60;;;15.00;1.00;;;;;;5004726;28;20117;-56
2022/11/01 10:22:18;;;;;;;17.98;3.72;;;15.10;1.00;;;;;;5004014;28;20054;-56
2022/11/01 10:24:55;;;;;;;14.63;4.07;;;14.90;1.00;;;;;;5002955;28;20076;-56
2022/11/01 10:27:28;;;;;;;28.17;3.78;;;15.00;1.00;;;;;;5003064;28;20112;-57
2022/11/01 10:29:57;;;;;;;23.40;4.28;;;15.10;1.00;;;;;;5001991;28;20582;-56
2022/11/01 10:32:26;;;;;;;19.90;3.35;;;15.00;1.00;;;;;;5001503;28;20522;-56
2022/11/01 10:34:54;;;;;;;19.60;3.67;;;15.90;1.00;;;;;;5003089;28;20041;-56
2022/11/01 10:37:27;;;;;;;19.45;3.97;;;15.10;1.00;;;;;;5004520;28;20048;-56
2022/11/01 10:40:00;;;;;;;16.67;3.58;;;14.70;1.00;;;;;;5003867;28;21204;-56
2022/11/01 10:42:28;;;;;;;17.80;3.63;;;15.70;1.00;;;;;;4999798;28;20473;-56
2022/11/01 10:45:07;;;;;;;17.55;3.03;;;14.80;1.00;;;;;;5005126;28;20048;-56
2022/11/01 10:47:33;;;;;;;14.43;3.67;;;15.10;1.00;;;;;;5003893;28;20049;-56
2022/11/01 10:50:05;;;;;;;16.65;3.03;;;15.00;1.00;;;;;;5004691;28;20049;-56
2022/11/01 10:52:44;;;;;;;20.85;3.95;;;14.80;1.00;;;;;;5003023;28;20067;-56
2022/11/01 10:55:18;;;;;;;18.08;2.58;;;14.70;1.00;;;;;;5002803;28;20049;-56
2022/11/01 10:57:53;;;;;;;23.60;3.17;;;14.40;1.00;;;;;;5002161;28;20187;-56
2022/11/01 11:00:20;;;;;;;22.90;3.00;;;14.70;1.00;;;;;;5005320;28;20061;-56
2022/11/01 11:02:55;;;;;;;18.27;3.10;;;14.50;1.00;;;;;;5004664;28;20515;-56
2022/11/01 11:05:23;;;;;;;14.85;2.72;;;14.30;1.00;;;;;;5002781;28;20049;-56
2022/11/01 11:07:49;;;;;;;16.08;2.83;;;14.50;1.00;;;;;;5005256;28;20474;-56
2022/11/01 11:10:25;;;;;;;15.07;2.88;;;14.50;1.00;;;;;;5004132;28;20049;-56
2022/11/01 11:13:04;;;;;;;15.32;2.47;;;14.50;1.00;;;;;;5005026;28;20064;-56
2022/11/01 11:15:36;;;;;;;19.05;4.00;;;14.60;1.00;;;;;;5004699;28;20041;-56
2022/11/01 11:18:05;;;;;;;23.50;3.22;;;14.70;1.00;;;;;;5003406;28;20053;-55
2022/11/01 11:20:33;;;;;;;13.93;3.08;;;14.50;1.00;;;;;;5005518;28;20050;-55
2022/11/01 11:23:01;;;;;;;18.52;3.55;;;14.60;1.00;;;;;;5005709;28;20048;-56
2022/11/01 11:25:35;;;;;;;19.23;2.80;;;14.60;1.00;;;;;;5004509;28;20422;-56
2022/11/01 11:28:02;;;;;;;19.13;2.80;;;14.50;1.00;;;;;;5002176;28;20129;-56
2022/11/01 11:30:34;;;;;;;21.23;3.05;;;14.60;1.00;;;;;;5003659;28;20053;-57
2022/11/01 11:33:01;;;;;;;18.33;2.85;;;14.90;1.00;;;;;;5000323;28;20049;-56
2022/11/01 11:35:31;;;;;;;17.55;2.90;;;14.90;1.00;;;;;;5004619;28;20215;-55
2022/11/01 11:38:05;;;;;;;15.45;2.58;;;14.70;1.00;;;;;;5004629;28;20046;-56
2022/11/01 11:40:39;;;;;;;19.15;2.60;;;14.80;1.00;;;;;;5002574;28;20717;-56
2022/11/01 11:43:32;;;;;;;12.40;2.35;;;14.90;1.00;;;;;;5008534;28;20080;-55
2022/11/01 11:46:19;;;;;;;16.27;3.00;;;15.10;1.00;;;;;;5009111;28;20052;-56
2022/11/01 11:48:57;;;;;;;17.83;2.90;;;15.10;1.00;;;;;;5005428;28;20051;-56
2022/11/01 11:51:26;;;;;;;20.65;3.33;;;15.20;1.00;;;;;;5005620;28;20380;-53
2022/11/01 11:54:30;;;;;;;18.60;2.45;;;15.30;1.00;;;;;;5006775;28;20070;-56
2022/11/01 11:57:17;;;;;;;15.35;2.72;;;15.20;1.00;;;;;;5008569;28;21176;-54
2022/11/01 11:59:48;;;;;;;15.77;2.22;;;15.30;1.00;;;;;;5006416;28;20044;-54
2022/11/01 12:02:28;;;;;;;14.05;2.75;;;15.20;1.00;;;;;;5008443;28;20500;-54
2022/11/01 12:05:02;;;;;;;15.07;3.42;;;15.40;1.00;;;;;;5004715;28;20069;-55
2022/11/01 12:07:32;;;;;;;14.65;3.33;;;15.40;1.00;;;;;;5007549;28;20057;-55
2022/11/01 12:10:04;;;;;;;15.27;2.22;;;15.30;1.00;;;;;;5007024;28;20068;-53
2022/11/01 12:12:33;;;;;;;12.63;2.55;;;15.60;1.00;;;;;;5004887;28;20046;-54
2022/11/01 12:15:02;;;;;;;17.35;2.60;;;15.40;1.00;;;;;;5006914;28;20118;-55
2022/11/01 12:17:35;;;;;;;15.93;2.80;;;15.60;1.00;;;;;;5006382;28;20128;-53
2022/11/01 12:20:12;;;;;;;19.52;2.80;;;15.70;1.00;;;;;;5000542;28;20081;-52
2022/11/01 12:22:42;;;;;;;17.77;2.55;;;15.60;1.00;;;;;;5004541;28;20049;-52
2022/11/01 12:25:13;;;;;;;16.45;2.83;;;15.60;1.00;;;;;;5005026;28;20053;-54
2022/11/01 12:27:45;;;;;;;13.75;2.95;;;15.50;1.00;;;;;;5004032;28;20491;-50
2022/11/01 12:30:19;;;;;;;11.07;2.38;;;15.70;1.00;;;;;;5008758;28;20041;-54
2022/11/01 12:32:57;;;;;;;16.33;3.00;;;15.80;1.00;;;;;;5003786;28;20499;-53
2022/11/01 12:35:33;;;;;;;14.18;3.25;;;15.60;1.00;;;;;;5006523;28;20132;-53
2022/11/01 12:38:16;;;;;;;16.20;3.03;;;15.60;1.00;;;;;;5004154;28;20511;-54
2022/11/01 12:40:44;;;;;;;14.38;2.47;;;15.60;1.00;;;;;;5006937;28;20105;-53
2022/11/01 12:43:32;;;;;;;19.92;2.63;;;15.70;1.00;;;;;;5005579;28;20045;-52
2022/11/01 12:46:11;;;;;;;12.88;2.50;;;15.60;1.00;;;;;;5006211;28;20041;-53
2022/11/01 12:48:43;;;;;;;11.80;2.10;;;15.80;1.00;;;;;;5008216;28;20063;-53
2022/11/01 12:51:33;;;;;;;15.93;3.25;;;15.80;1.00;;;;;;5007181;28;20034;-54
2022/11/01 12:54:08;;;;;;;17.33;2.97;;;15.60;1.00;;;;;;5007190;28;20056;-55
2022/11/01 12:56:34;;;;;;;14.57;2.40;;;15.80;1.00;;;;;;5004025;28;20105;-54
2022/11/01 12:59:00;;;;;;;14.88;2.63;;;15.90;1.00;;;;;;5008963;28;20045;-53
2022/11/01 13:01:54;;;;;;;17.98;3.08;;;16.00;1.00;;;;;;5003818;28;20136;-53
2022/11/01 13:04:34;;;;;;;12.63;2.63;;;16.00;1.00;;;;;;5002229;28;20585;-54